createdAt,value
2022-10-17T00:04:09.767Z,97620.78
2022-10-17T00:19:25.242Z,97627.41
2022-10-17T00:24:18.674Z,97629.69
2022-10-17T00:29:11.973Z,97632.00
2022-10-17T00:34:05.166Z,97645.50
2022-10-17T00:39:01.068Z,97643.00
2022-10-17T00:43:58.856Z,97642.09
2022-10-17T00:48:55.861Z,97644.97
2022-10-17T00:59:01.407Z,97643.97
2022-10-17T01:03:54.856Z,97636.91
2022-10-17T01:08:48.360Z,97633.50
2022-10-17T01:13:51.041Z,97634.59
2022-10-17T01:19:10.209Z,97634.97
2022-10-17T01:25:10.176Z,97632.34
2022-10-17T01:31:10.901Z,97638.34
2022-10-17T01:36:16.530Z,97625.28
2022-10-17T01:41:25.002Z,97623.75
2022-10-17T01:46:25.195Z,97621.88
2022-10-17T01:51:26.049Z,97623.38
2022-10-17T02:42:57.070Z,97629.72
2022-10-17T02:58:20.206Z,97602.97
2022-10-17T03:03:26.267Z,97602.56
2022-10-17T03:08:19.828Z,97607.72
2022-10-17T03:13:14.749Z,97612.28
2022-10-17T03:18:08.098Z,97616.31
2022-10-17T03:23:01.367Z,97620.41
2022-10-17T03:27:55.148Z,97625.66
2022-10-17T03:32:49.734Z,97632.72
2022-10-17T03:37:43.000Z,97620.31
2022-10-17T03:42:36.210Z,97627.69
2022-10-17T03:47:30.511Z,97625.97
2022-10-17T03:52:25.544Z,97620.56
2022-10-17T03:57:18.864Z,97623.91
2022-10-17T04:02:12.419Z,97619.50
2022-10-17T04:07:05.860Z,97637.66
2022-10-17T04:12:01.224Z,97632.88
2022-10-17T04:16:54.632Z,97641.03
2022-10-17T04:21:47.907Z,97637.75
2022-10-17T04:26:41.240Z,97641.78
2022-10-17T04:31:35.934Z,97645.25
2022-10-17T04:36:29.207Z,97652.25
2022-10-17T04:41:22.486Z,97643.28
2022-10-17T04:46:16.614Z,97654.22
2022-10-17T04:51:14.934Z,97653.63
2022-10-17T04:56:13.859Z,97643.28
2022-10-17T05:01:09.125Z,97661.03
2022-10-17T05:06:07.134Z,97655.31
2022-10-17T05:11:05.771Z,97665.84
2022-10-17T05:16:01.386Z,97658.47
2022-10-17T05:20:54.662Z,97666.97
2022-10-17T05:25:48.006Z,97670.84
2022-10-17T05:30:42.653Z,97650.53
2022-10-17T05:35:35.877Z,97641.69
2022-10-17T05:40:29.187Z,97657.34
2022-10-17T05:45:22.450Z,97648.72
2022-10-17T05:50:17.259Z,97663.50
2022-10-17T05:55:11.519Z,97680.28
2022-10-17T06:00:06.665Z,97692.84
2022-10-17T06:05:00.079Z,97692.41
2022-10-17T06:09:54.958Z,97706.38
2022-10-17T06:14:48.199Z,97721.00
2022-10-17T06:19:42.111Z,97717.28
2022-10-17T06:24:35.350Z,97720.16
2022-10-17T06:29:30.020Z,97729.81
2022-10-17T06:34:23.484Z,97740.78
2022-10-17T06:39:16.955Z,97745.53
2022-10-17T06:44:11.277Z,97756.56
2022-10-17T06:49:06.617Z,97750.16
2022-10-17T06:54:00.333Z,97763.38
2022-10-17T06:58:54.749Z,97762.09
2022-10-17T07:03:50.105Z,97780.53
2022-10-17T07:08:47.054Z,97787.25
2022-10-17T07:13:42.558Z,97797.38
2022-10-17T07:18:36.072Z,97804.00
2022-10-17T07:23:29.483Z,97808.63
2022-10-17T07:28:24.472Z,97819.03
2022-10-17T07:33:17.739Z,97815.41
2022-10-17T07:38:11.006Z,97815.13
2022-10-17T07:43:04.331Z,97828.25
2022-10-17T07:48:05.748Z,97827.41
2022-10-17T07:52:59.416Z,97829.88
2022-10-17T07:57:52.717Z,97829.75
2022-10-17T08:02:50.044Z,97844.16
2022-10-17T08:07:48.271Z,97838.28
2022-10-17T08:12:41.881Z,97838.56
2022-10-17T08:17:37.076Z,97832.19
2022-10-17T08:22:33.840Z,97834.44
2022-10-17T08:27:28.980Z,97839.69
2022-10-17T08:32:24.951Z,97847.78
2022-10-17T08:37:18.363Z,97838.84
2022-10-17T08:43:00.259Z,97838.28
2022-10-17T08:48:00.207Z,97852.94
2022-10-17T08:53:02.883Z,97852.13
2022-10-17T08:57:57.594Z,97852.78
2022-10-17T09:03:10.884Z,97861.16
2022-10-17T09:08:18.215Z,97855.47
2022-10-17T09:13:27.953Z,97853.16
2022-10-17T09:18:29.054Z,97853.34
2022-10-17T09:23:27.104Z,97868.84
2022-10-17T09:28:29.080Z,97860.19
2022-10-17T09:33:35.944Z,97859.53
2022-10-17T09:38:46.623Z,97865.47
2022-10-17T09:43:41.801Z,97868.59
2022-10-17T09:48:43.501Z,97870.59
2022-10-17T09:53:41.736Z,97875.16
2022-10-17T09:58:49.671Z,97871.47
2022-10-17T10:03:42.905Z,97880.13
2022-10-17T10:08:49.539Z,97876.53
2022-10-17T10:18:47.426Z,97889.66
2022-10-17T10:23:45.841Z,97888.84
2022-10-17T10:28:39.989Z,97888.63
2022-10-17T10:33:41.438Z,97891.97
2022-10-17T10:38:40.685Z,97888.16
2022-10-17T10:43:39.237Z,97888.78
2022-10-17T10:48:36.542Z,97894.66
2022-10-17T10:53:42.931Z,97887.09
2022-10-17T10:58:49.710Z,97897.66
2022-10-17T11:03:54.714Z,97881.81
2022-10-17T11:08:55.839Z,97892.03
2022-10-17T11:13:59.403Z,97889.03
2022-10-17T11:24:17.497Z,97889.38
2022-10-17T11:29:13.741Z,97875.91
2022-10-17T11:34:19.587Z,97882.97
2022-10-17T11:39:21.700Z,97893.75
2022-10-17T11:54:44.614Z,97878.19
2022-10-17T12:00:01.731Z,97889.09
2022-10-17T12:05:07.011Z,97886.56
2022-10-17T12:10:20.287Z,97884.56
2022-10-17T12:15:37.923Z,97889.56
2022-10-17T12:20:37.271Z,97885.13
2022-10-17T12:25:35.619Z,97890.88
2022-10-17T12:30:30.239Z,97871.94
2022-10-17T12:35:26.275Z,97873.31
2022-10-17T12:40:59.679Z,97868.75
2022-10-17T12:45:55.258Z,97871.00
2022-10-17T12:51:38.221Z,97854.53
2022-10-17T13:01:37.838Z,97863.59
2022-10-17T13:11:42.034Z,97856.25
2022-10-17T13:21:56.143Z,97851.09
2022-10-17T13:26:49.522Z,97849.91
2022-10-17T13:31:45.801Z,97852.13
2022-10-17T13:36:39.091Z,97855.50
2022-10-17T13:41:36.828Z,97856.13
2022-10-17T13:46:39.129Z,97863.41
2022-10-17T13:51:32.935Z,97867.03
2022-10-17T13:56:30.378Z,97864.09
2022-10-17T14:01:28.748Z,97854.88
2022-10-17T14:06:24.437Z,97850.00
2022-10-17T14:11:40.157Z,97859.09
2022-10-17T14:16:35.197Z,97848.03
2022-10-17T14:21:40.916Z,97850.25
2022-10-17T14:26:50.055Z,97848.19
2022-10-17T14:31:43.297Z,97848.59
2022-10-17T14:36:42.043Z,97851.09
2022-10-17T14:41:44.021Z,97853.28
2022-10-17T14:46:39.300Z,97853.72
2022-10-17T14:51:44.691Z,97856.09
2022-10-17T14:56:53.298Z,97853.19
2022-10-17T15:01:46.539Z,97853.06
2022-10-17T15:06:40.661Z,97844.56
2022-10-17T15:11:34.135Z,97848.75
2022-10-17T15:16:33.791Z,97850.88
2022-10-17T15:21:41.891Z,97848.75
2022-10-17T15:26:38.567Z,97854.56
2022-10-17T15:31:33.548Z,97850.94
2022-10-17T15:36:30.310Z,97859.13
2022-10-17T15:41:26.188Z,97853.53
2022-10-17T15:46:22.787Z,97859.53
2022-10-17T15:51:18.125Z,97862.56
2022-10-17T15:56:24.011Z,97874.91
2022-10-17T16:01:24.349Z,97872.78
2022-10-17T16:06:20.018Z,97872.84
2022-10-17T16:11:22.972Z,97874.81
2022-10-17T16:16:16.170Z,97868.38
2022-10-17T17:18:06.618Z,97917.56
2022-10-17T22:46:49.513Z,98039.03
